createdAt,value
2022-09-25T06:48:57.832Z,7.30
2022-09-25T06:51:25.712Z,7.77
2022-09-25T06:53:53.660Z,6.77
2022-09-25T06:56:21.092Z,7.77
2022-09-25T06:58:47.672Z,7.43
2022-09-25T07:01:14.497Z,7.10
2022-09-25T07:03:47.650Z,7.37
2022-09-25T07:06:18.650Z,7.30
2022-09-25T07:08:46.290Z,7.30
2022-09-25T07:11:21.719Z,7.53
2022-09-25T07:13:51.223Z,8.07
2022-09-25T07:16:19.534Z,7.60
2022-09-25T07:18:46.771Z,7.53
2022-09-25T07:21:21.964Z,7.97
2022-09-25T07:23:49.919Z,7.77
2022-09-25T07:26:23.094Z,7.60
2022-09-25T07:29:04.064Z,8.10
2022-09-25T07:31:33.095Z,8.50
2022-09-25T07:34:05.800Z,7.97
2022-09-25T07:36:32.927Z,7.93
2022-09-25T07:38:59.513Z,8.07
2022-09-25T07:41:26.141Z,8.43
2022-09-25T07:44:40.171Z,8.17
2022-09-25T07:46:44.757Z,8.33
2022-09-25T07:49:11.962Z,8.20
2022-09-25T07:51:38.591Z,7.93
2022-09-25T07:54:05.323Z,8.40
2022-09-25T07:56:34.349Z,8.30
2022-09-25T07:59:00.965Z,8.00
2022-09-25T08:01:27.581Z,7.77
2022-09-25T08:03:54.655Z,8.53
2022-09-25T08:06:21.251Z,8.60
2022-09-25T08:08:47.842Z,8.67
2022-09-25T08:11:16.864Z,7.73
2022-09-25T08:13:44.503Z,11.33
2022-09-25T08:16:14.577Z,9.07
2022-09-25T08:18:43.972Z,8.80
2022-09-25T08:21:14.057Z,8.23
2022-09-25T08:23:46.784Z,8.07
2022-09-25T08:26:14.934Z,8.83
2022-09-25T08:28:41.904Z,8.33
2022-09-25T08:31:08.800Z,8.57
2022-09-25T08:33:35.984Z,8.23
2022-09-25T08:36:04.816Z,8.20
2022-09-25T08:38:33.292Z,8.77
2022-09-25T08:41:03.739Z,8.57
2022-09-25T08:43:33.312Z,8.17
2022-09-25T08:46:23.816Z,8.20
2022-09-25T08:49:06.499Z,7.30
2022-09-25T08:51:44.664Z,8.03
2022-09-25T08:54:19.070Z,8.60
2022-09-25T08:56:49.177Z,8.57
2022-09-25T08:59:32.050Z,7.70
2022-09-25T09:02:10.759Z,7.53
2022-09-25T09:04:45.111Z,6.97
2022-09-25T09:07:32.501Z,7.97
2022-09-25T09:10:37.076Z,7.73
2022-09-25T09:13:33.015Z,8.77
2022-09-25T09:16:29.783Z,7.53
2022-09-25T09:18:57.776Z,7.60
2022-09-25T09:21:38.958Z,8.53
2022-09-25T09:24:06.135Z,8.40
2022-09-25T09:27:04.258Z,8.47
2022-09-25T09:30:06.050Z,8.37
2022-09-25T09:32:51.311Z,8.13
2022-09-25T09:35:49.088Z,7.83
2022-09-25T09:38:42.864Z,9.47
2022-09-25T09:41:32.274Z,9.00
2022-09-25T09:44:42.875Z,8.30
2022-09-25T09:47:33.527Z,7.90
2022-09-25T09:50:26.143Z,8.60
2022-09-25T09:53:03.328Z,8.17
2022-09-25T09:55:46.040Z,8.67
2022-09-25T09:58:20.993Z,8.43
2022-09-25T10:00:49.213Z,8.13
2022-09-25T10:03:30.417Z,8.70
2022-09-25T10:06:00.711Z,8.43
2022-09-25T10:08:27.357Z,8.07
2022-09-25T10:10:55.053Z,7.90
2022-09-25T10:13:26.783Z,8.30
2022-09-25T10:16:01.839Z,8.73
2022-09-25T10:18:37.500Z,8.83
2022-09-25T10:21:13.832Z,8.13
2022-09-25T10:23:49.621Z,8.87
2022-09-25T10:26:23.538Z,7.93
2022-09-25T10:28:50.594Z,8.27
2022-09-25T10:31:19.032Z,8.10
2022-09-25T10:33:58.818Z,8.63
2022-09-25T10:36:44.709Z,8.50
2022-09-25T10:39:44.852Z,8.87
2022-09-25T10:42:38.941Z,7.67
2022-09-25T10:45:35.061Z,8.43
2022-09-25T10:48:26.900Z,7.20
2022-09-25T10:51:18.437Z,6.70
2022-09-25T10:53:46.776Z,7.10
2022-09-25T10:56:31.010Z,7.47
2022-09-25T10:59:01.708Z,5.80
2022-09-25T11:01:37.989Z,5.70
2022-09-25T11:04:17.129Z,6.37
2022-09-25T11:07:07.075Z,5.97
2022-09-25T11:09:36.566Z,6.63
2022-09-25T11:12:16.434Z,5.67
2022-09-25T11:14:55.364Z,5.90
2022-09-25T11:17:42.113Z,6.47
2022-09-25T11:20:29.339Z,5.90
2022-09-25T11:23:19.693Z,7.37
2022-09-25T11:25:52.971Z,6.27
2022-09-25T11:28:50.717Z,6.60
2022-09-25T11:31:35.512Z,5.53
2022-09-25T11:34:11.918Z,5.83
2022-09-25T11:37:04.257Z,5.73
2022-09-25T11:40:03.642Z,5.27
2022-09-25T11:42:51.914Z,5.60
2022-09-25T11:45:39.181Z,5.17
2022-09-25T11:48:23.871Z,5.53
2022-09-25T11:51:28.154Z,5.93
2022-09-25T11:54:33.359Z,5.83
2022-09-25T11:57:21.689Z,5.87
2022-09-25T12:00:00.449Z,5.60
2022-09-25T12:03:12.510Z,5.90
2022-09-25T12:05:49.237Z,5.37
2022-09-25T12:08:30.597Z,5.23
2022-09-25T12:11:18.831Z,5.43
2022-09-25T12:14:10.467Z,5.03
2022-09-25T12:16:42.978Z,5.20
2022-09-25T12:19:23.593Z,5.17
2022-09-25T12:22:05.767Z,4.47
2022-09-25T12:24:33.281Z,4.37
2022-09-25T12:27:31.793Z,4.93
2022-09-25T12:30:21.782Z,4.47
2022-09-25T12:33:10.413Z,4.07
2022-09-25T12:35:50.772Z,4.50
2022-09-25T12:38:30.179Z,4.70
2022-09-25T12:41:18.819Z,4.37
2022-09-25T12:43:55.315Z,4.40
2022-09-25T12:46:29.928Z,5.40
2022-09-25T12:49:13.916Z,4.37
2022-09-25T12:51:50.744Z,4.47
2022-09-25T12:54:52.059Z,4.60
2022-09-25T12:57:23.543Z,3.97
2022-09-25T13:00:02.342Z,4.40
2022-09-25T13:02:39.074Z,4.17
2022-09-25T13:05:30.132Z,3.93
2022-09-25T13:08:15.973Z,4.57
2022-09-25T13:10:48.511Z,4.77
2022-09-25T13:13:24.171Z,4.80
2022-09-25T13:16:01.182Z,4.27
2022-09-25T13:18:30.178Z,5.03
2022-09-25T13:20:58.020Z,5.10
2022-09-25T13:23:36.760Z,4.80
2022-09-25T13:26:25.060Z,4.63
2022-09-25T13:28:59.718Z,4.50
2022-09-25T13:31:31.950Z,4.60
2022-09-25T13:34:02.037Z,5.13
2022-09-25T13:36:53.701Z,4.70
2022-09-25T13:40:11.887Z,4.87
2022-09-25T13:42:46.304Z,4.97
2022-09-25T13:45:22.353Z,6.17
2022-09-25T13:47:55.041Z,5.93
2022-09-25T13:50:36.262Z,5.53
2022-09-25T13:53:23.664Z,4.30
2022-09-25T13:55:50.221Z,5.13
2022-09-25T13:58:18.939Z,6.87
2022-09-25T14:00:58.713Z,5.57
2022-09-25T14:03:49.518Z,5.17
2022-09-25T14:06:23.980Z,6.30
2022-09-25T14:08:55.150Z,6.17
2022-09-25T14:11:31.438Z,6.47
2022-09-25T14:14:01.732Z,6.17
2022-09-25T14:16:32.585Z,6.23
2022-09-25T14:19:01.475Z,6.70
2022-09-25T14:21:29.922Z,6.27
2022-09-25T14:24:24.690Z,6.63
2022-09-25T14:26:58.622Z,6.97
2022-09-25T14:29:40.875Z,7.47
2022-09-25T14:32:50.358Z,6.40
2022-09-25T14:35:21.824Z,7.33
2022-09-25T14:38:35.894Z,6.60
2022-09-25T14:41:29.573Z,6.50
2022-09-25T14:44:17.755Z,5.40
2022-09-25T14:46:48.421Z,5.50
2022-09-25T14:49:27.605Z,5.40
2022-09-25T14:51:59.211Z,5.30
2022-09-25T14:54:32.373Z,5.50
2022-09-25T14:56:59.756Z,5.03
2022-09-25T14:59:54.938Z,6.00
2022-09-25T15:02:26.784Z,5.57
2022-09-25T15:04:58.408Z,6.23
2022-09-25T15:07:26.156Z,6.17
2022-09-25T15:09:55.968Z,5.93
2022-09-25T15:12:33.768Z,6.50
2022-09-25T15:15:13.755Z,5.67
2022-09-25T15:17:47.736Z,5.93
2022-09-25T15:20:17.144Z,6.17
2022-09-25T15:22:54.167Z,5.50
2022-09-25T15:25:26.200Z,5.87
2022-09-25T15:27:53.138Z,5.67
2022-09-25T15:30:19.901Z,6.60
2022-09-25T15:32:50.521Z,5.80
2022-09-25T15:35:22.350Z,6.60
2022-09-25T15:37:49.276Z,6.50
2022-09-25T15:40:19.630Z,6.40
2022-09-25T15:42:47.895Z,6.40
2022-09-25T15:45:37.551Z,6.20
2022-09-25T15:48:20.777Z,6.37
2022-09-25T15:50:48.541Z,5.50
2022-09-25T15:53:32.530Z,6.23
2022-09-25T15:56:15.122Z,6.13
2022-09-25T15:58:46.178Z,5.47
2022-09-25T16:01:34.131Z,5.80
2022-09-25T16:04:20.550Z,5.10
2022-09-25T16:06:49.934Z,4.73
2022-09-25T16:09:33.036Z,5.10
2022-09-25T16:12:32.766Z,5.23
2022-09-25T16:15:43.403Z,5.20
2022-09-25T16:18:42.354Z,4.20
2022-09-25T16:21:29.007Z,5.37
2022-09-25T16:23:58.755Z,4.80
2022-09-25T16:26:36.314Z,5.40
2022-09-25T16:29:25.245Z,4.93
2022-09-25T16:31:54.239Z,5.57
2022-09-25T16:34:27.348Z,5.10
2022-09-25T16:36:58.118Z,5.13
2022-09-25T16:39:31.310Z,4.87
2022-09-25T16:41:59.972Z,5.07
2022-09-25T16:44:32.737Z,5.90
2022-09-25T16:46:59.351Z,5.37
2022-09-25T16:49:26.357Z,7.10
2022-09-25T16:51:55.427Z,6.83
2022-09-25T16:54:28.125Z,5.43
2022-09-25T16:56:57.001Z,5.27
2022-09-25T16:59:26.019Z,6.10
2022-09-25T17:02:10.638Z,5.60
2022-09-25T17:04:38.655Z,5.67
2022-09-25T17:07:05.272Z,5.30
2022-09-25T17:09:31.832Z,5.47
2022-09-25T17:12:10.568Z,5.13
2022-09-25T17:14:37.356Z,5.70
2022-09-25T17:17:04.031Z,5.10
2022-09-25T17:19:30.609Z,5.17
2022-09-25T17:21:58.057Z,5.80
2022-09-25T17:24:26.837Z,6.97
2022-09-25T17:26:54.447Z,5.63
2022-09-25T17:29:21.633Z,6.07
2022-09-25T17:31:48.535Z,4.80
2022-09-25T17:34:17.976Z,4.83
2022-09-25T17:36:45.278Z,5.23
2022-09-25T17:39:12.002Z,4.90
2022-09-25T17:41:39.773Z,5.23
2022-09-25T17:44:08.929Z,4.93
2022-09-25T17:46:36.338Z,5.20
2022-09-25T17:49:03.829Z,5.07
2022-09-25T17:51:30.714Z,5.00
2022-09-25T17:53:59.466Z,5.67
2022-09-25T17:56:30.092Z,5.87
2022-09-25T17:58:57.772Z,5.87
2022-09-25T18:01:27.349Z,5.60
2022-09-25T18:03:56.380Z,5.83
2022-09-25T18:06:24.243Z,5.07
2022-09-25T18:08:51.800Z,5.83
2022-09-25T18:11:18.580Z,5.00
2022-09-25T18:13:45.613Z,4.93
2022-09-25T18:16:23.544Z,5.43
2022-09-25T18:19:08.698Z,5.17
2022-09-25T18:21:54.121Z,5.43
2022-09-25T18:24:20.819Z,4.93
2022-09-25T18:26:48.183Z,4.90
2022-09-25T18:29:16.874Z,4.40
2022-09-25T18:31:44.975Z,5.13
2022-09-25T18:34:11.595Z,4.77
2022-09-25T18:36:38.194Z,4.63
2022-09-25T18:39:04.889Z,5.10
2022-09-25T18:41:31.563Z,4.80
2022-09-25T18:43:58.345Z,4.90
2022-09-25T18:46:25.004Z,5.27
2022-09-25T18:48:53.547Z,5.27
2022-09-25T18:51:20.156Z,4.83
2022-09-25T18:53:51.867Z,4.73
2022-09-25T18:56:18.778Z,5.37
2022-09-25T18:58:45.477Z,5.47
2022-09-25T19:01:12.194Z,5.40
2022-09-25T19:03:41.012Z,5.80
2022-09-25T19:06:08.041Z,5.40
2022-09-25T19:08:36.190Z,5.90
2022-09-25T19:11:02.950Z,6.07
2022-09-25T19:13:30.161Z,5.57
2022-09-25T19:15:58.999Z,5.80
2022-09-25T19:18:25.702Z,5.33
2022-09-25T19:20:54.530Z,5.70
2022-09-25T19:23:22.220Z,5.00
2022-09-25T19:25:59.030Z,5.63
2022-09-25T19:28:27.137Z,5.03
2022-09-25T19:31:02.142Z,6.00
2022-09-25T19:33:30.723Z,5.80
2022-09-25T19:35:59.131Z,6.20
2022-09-25T19:38:26.181Z,5.93
2022-09-25T19:40:53.034Z,7.50
2022-09-25T19:43:19.796Z,5.73
2022-09-25T19:45:53.796Z,5.87
2022-09-25T19:48:21.588Z,6.30
2022-09-25T19:50:48.236Z,6.47
2022-09-25T19:53:15.407Z,5.80
2022-09-25T19:55:43.082Z,6.10
2022-09-25T19:58:11.173Z,6.47
2022-09-25T20:00:42.057Z,5.70
2022-09-25T20:03:09.960Z,5.10
2022-09-25T20:05:41.408Z,5.90
2022-09-25T20:08:08.955Z,5.80
2022-09-25T20:10:37.708Z,6.20
2022-09-25T20:13:06.066Z,5.87
2022-09-25T20:15:33.776Z,4.97
2022-09-25T20:18:00.453Z,5.00
2022-09-25T20:20:29.326Z,5.60
2022-09-25T20:22:57.021Z,5.17
2022-09-25T20:25:26.660Z,5.03
2022-09-25T20:27:53.546Z,5.57
2022-09-25T20:30:21.169Z,5.13
2022-09-25T20:32:47.813Z,5.03
2022-09-25T20:35:14.588Z,5.57
2022-09-25T20:37:46.585Z,5.27
2022-09-25T20:40:14.968Z,5.20
2022-09-25T20:42:42.564Z,5.30
2022-09-25T20:45:10.340Z,4.87
2022-09-25T20:47:45.169Z,5.00
2022-09-25T20:50:12.873Z,4.80
2022-09-25T20:52:39.891Z,4.80
2022-09-25T20:55:07.249Z,4.77
2022-09-25T20:57:33.956Z,5.93
2022-09-25T21:00:02.005Z,5.73
2022-09-25T21:02:29.363Z,5.47
2022-09-25T21:04:56.872Z,4.90
2022-09-25T21:07:25.462Z,5.60
2022-09-25T21:09:53.066Z,5.57
2022-09-25T21:12:19.895Z,6.50
2022-09-25T21:14:46.528Z,5.13
2022-09-25T21:17:13.150Z,4.77
2022-09-25T21:19:40.426Z,4.60
2022-09-25T21:22:06.979Z,5.00
2022-09-25T21:24:33.545Z,5.17
2022-09-25T21:27:00.112Z,5.30
2022-09-25T21:29:26.892Z,5.27
2022-09-25T21:31:55.244Z,4.93
2022-09-25T21:34:21.820Z,5.20
2022-09-25T21:36:49.006Z,5.60
2022-09-25T21:39:15.752Z,4.80
2022-09-25T21:41:42.513Z,5.50
2022-09-25T21:44:13.203Z,5.83
2022-09-25T21:46:40.667Z,4.90
2022-09-25T21:49:08.535Z,5.40
2022-09-25T21:51:43.189Z,5.07
2022-09-25T21:54:10.930Z,5.33
